createdAt,value
2023-05-09T00:01:24.848Z,9.00
2023-05-09T00:03:52.455Z,9.00
2023-05-09T00:06:20.354Z,8.90
2023-05-09T00:08:48.035Z,8.90
2023-05-09T00:11:15.348Z,8.90
2023-05-09T00:13:44.387Z,8.80
2023-05-09T00:16:11.902Z,8.80
2023-05-09T00:18:42.413Z,8.80
2023-05-09T00:21:11.586Z,8.80
2023-05-09T00:23:39.134Z,8.70
2023-05-09T00:26:07.255Z,8.70
2023-05-09T00:28:35.063Z,8.70
2023-05-09T00:31:04.647Z,8.60
2023-05-09T00:33:31.961Z,8.70
2023-05-09T00:36:01.749Z,8.60
2023-05-09T00:38:29.380Z,8.60
2023-05-09T00:40:56.455Z,8.50
2023-05-09T00:43:26.603Z,8.50
2023-05-09T00:45:57.004Z,8.50
2023-05-09T00:48:24.586Z,8.50
2023-05-09T00:50:54.727Z,8.40
2023-05-09T00:53:22.010Z,8.30
2023-05-09T00:55:50.643Z,8.40
2023-05-09T00:58:21.861Z,8.30
2023-05-09T01:00:48.969Z,8.30
2023-05-09T01:03:17.028Z,8.20
2023-05-09T01:06:03.229Z,8.30
2023-05-09T01:08:44.425Z,8.30
2023-05-09T01:11:37.827Z,8.20
2023-05-09T01:14:27.481Z,8.20
2023-05-09T01:17:20.873Z,8.20
2023-05-09T01:20:00.509Z,8.20
2023-05-09T01:22:36.158Z,8.10
2023-05-09T01:25:19.708Z,8.10
2023-05-09T01:28:24.475Z,8.10
2023-05-09T01:30:53.958Z,8.00
2023-05-09T01:33:24.943Z,8.00
2023-05-09T01:35:58.161Z,7.90
2023-05-09T01:38:26.962Z,7.90
2023-05-09T01:40:57.034Z,7.80
2023-05-09T01:43:28.113Z,7.80
2023-05-09T01:45:58.370Z,7.80
2023-05-09T01:48:30.406Z,7.80
2023-05-09T01:50:59.676Z,7.70
2023-05-09T01:53:28.417Z,7.70
2023-05-09T01:56:00.208Z,7.70
2023-05-09T01:58:28.405Z,7.60
2023-05-09T02:00:55.816Z,7.60
2023-05-09T02:03:24.489Z,7.60
2023-05-09T02:05:52.799Z,7.40
2023-05-09T02:08:21.680Z,7.60
2023-05-09T02:10:54.963Z,7.50
2023-05-09T02:13:23.341Z,7.40
2023-05-09T02:15:50.987Z,7.50
2023-05-09T02:18:18.918Z,7.50
2023-05-09T02:20:46.680Z,7.40
2023-05-09T02:23:14.189Z,7.50
2023-05-09T02:25:41.675Z,7.40
2023-05-09T02:28:10.590Z,7.40
2023-05-09T02:30:43.468Z,7.50
2023-05-09T02:33:12.884Z,7.60
2023-05-09T02:35:42.874Z,7.50
2023-05-09T02:38:10.787Z,7.50
2023-05-09T02:40:39.124Z,7.60
2023-05-09T02:43:06.821Z,7.50
2023-05-09T02:45:34.192Z,7.60
2023-05-09T02:48:09.977Z,7.70
2023-05-09T02:50:50.420Z,7.70
2023-05-09T02:53:18.241Z,7.80
2023-05-09T02:55:46.041Z,7.80
2023-05-09T02:58:15.003Z,7.90
2023-05-09T03:00:43.169Z,7.80
2023-05-09T03:03:11.808Z,7.80
2023-05-09T03:05:41.940Z,7.90
2023-05-09T03:08:09.661Z,7.90
2023-05-09T03:10:36.798Z,7.90
2023-05-09T03:13:04.206Z,8.00
2023-05-09T03:15:31.757Z,8.00
2023-05-09T03:18:02.092Z,8.00
2023-05-09T03:20:32.929Z,8.00
2023-05-09T03:23:00.466Z,8.10
2023-05-09T03:25:37.412Z,8.10
2023-05-09T03:28:05.675Z,8.20
2023-05-09T03:30:35.493Z,8.30
2023-05-09T03:33:03.607Z,8.30
2023-05-09T03:35:31.429Z,8.40
2023-05-09T03:37:58.779Z,8.60
2023-05-09T03:40:26.080Z,8.50
2023-05-09T03:42:53.570Z,8.60
2023-05-09T03:45:22.606Z,8.60
2023-05-09T03:47:50.034Z,8.60
2023-05-09T03:50:20.333Z,8.70
2023-05-09T03:52:51.668Z,8.70
2023-05-09T03:55:19.254Z,8.70
2023-05-09T03:57:49.507Z,8.80
2023-05-09T04:00:17.370Z,8.90
2023-05-09T04:02:44.708Z,9.00
2023-05-09T04:05:15.306Z,9.00
2023-05-09T04:07:43.822Z,9.10
2023-05-09T04:10:11.691Z,9.10
2023-05-09T04:12:44.920Z,9.10
2023-05-09T04:15:12.434Z,9.20
2023-05-09T04:17:42.332Z,9.30
2023-05-09T04:20:11.041Z,9.40
2023-05-09T04:22:38.413Z,9.60
2023-05-09T04:25:07.428Z,10.00
2023-05-09T04:27:34.748Z,10.80
2023-05-09T04:30:02.471Z,11.90
2023-05-09T04:32:36.841Z,12.80
2023-05-09T04:35:06.615Z,13.20
2023-05-09T04:37:34.513Z,13.40
2023-05-09T04:40:01.739Z,13.20
2023-05-09T04:42:33.686Z,13.10
2023-05-09T04:45:02.996Z,12.80
2023-05-09T04:47:32.906Z,12.70
2023-05-09T04:50:00.840Z,12.60
2023-05-09T04:52:31.091Z,13.50
2023-05-09T04:54:58.616Z,14.80
2023-05-09T04:57:29.061Z,16.40
2023-05-09T04:59:58.394Z,18.30
2023-05-09T05:02:26.410Z,19.80
2023-05-09T05:05:10.261Z,21.30
2023-05-09T05:07:39.469Z,22.40
2023-05-09T05:10:07.505Z,23.40
2023-05-09T05:12:37.612Z,24.40
2023-05-09T05:15:05.731Z,25.10
2023-05-09T05:17:34.592Z,26.00
2023-05-09T05:20:08.134Z,26.80
2023-05-09T05:22:40.876Z,27.60
2023-05-09T05:25:09.308Z,28.30
2023-05-09T05:27:38.592Z,29.00
2023-05-09T05:30:08.206Z,29.60
2023-05-09T05:32:38.275Z,30.20
2023-05-09T05:35:06.464Z,31.00
2023-05-09T05:37:34.942Z,31.80
2023-05-09T05:40:12.514Z,32.40
2023-05-09T05:42:40.686Z,32.90
2023-05-09T05:45:11.914Z,33.60
2023-05-09T05:47:52.312Z,34.00
2023-05-09T05:50:31.383Z,34.50
2023-05-09T05:53:02.030Z,35.30
2023-05-09T05:55:30.254Z,35.50
2023-05-09T05:57:58.289Z,35.50
2023-05-09T06:00:34.950Z,36.00
2023-05-09T06:03:16.630Z,36.10
2023-05-09T06:05:45.195Z,35.80
2023-05-09T06:08:14.233Z,35.50
2023-05-09T06:10:50.480Z,35.30
2023-05-09T06:13:30.603Z,35.80
2023-05-09T06:16:22.126Z,36.40
2023-05-09T06:18:55.688Z,37.00
2023-05-09T06:21:27.458Z,37.60
2023-05-09T06:24:10.160Z,38.30
2023-05-09T06:26:42.858Z,38.40
2023-05-09T06:31:55.930Z,38.70
2023-05-09T06:34:23.791Z,39.50
2023-05-09T06:36:51.395Z,40.40
2023-05-09T06:39:25.979Z,41.20
2023-05-09T06:41:55.151Z,42.00
2023-05-09T06:44:23.107Z,42.30
2023-05-09T06:46:58.194Z,42.70
2023-05-09T06:49:31.925Z,43.10
2023-05-09T06:51:59.747Z,43.20
2023-05-09T06:54:30.101Z,43.30
2023-05-09T06:56:57.831Z,43.70
2023-05-09T06:59:28.873Z,43.80
2023-05-09T07:01:59.882Z,43.60
2023-05-09T07:04:32.245Z,43.80
2023-05-09T07:07:02.654Z,44.20
2023-05-09T07:09:31.934Z,44.20
2023-05-09T07:12:03.356Z,44.00
2023-05-09T07:14:31.959Z,43.70
2023-05-09T07:17:13.742Z,43.80
2023-05-09T07:19:46.713Z,43.80
2023-05-09T07:22:19.319Z,43.90
2023-05-09T07:24:47.498Z,44.30
2023-05-09T07:27:15.660Z,44.60
2023-05-09T07:29:43.124Z,44.50
2023-05-09T07:32:14.337Z,44.60
2023-05-09T07:34:41.944Z,44.60
2023-05-09T07:37:10.636Z,44.60
2023-05-09T07:39:47.498Z,43.90
2023-05-09T07:42:21.682Z,43.20
2023-05-09T07:44:49.683Z,43.10
2023-05-09T07:47:17.954Z,43.30
2023-05-09T07:49:46.872Z,43.50
2023-05-09T07:52:23.739Z,43.70
2023-05-09T07:54:56.652Z,43.80
2023-05-09T07:57:25.723Z,43.80
2023-05-09T07:59:59.203Z,43.70
2023-05-09T08:02:30.032Z,43.90
2023-05-09T08:04:59.276Z,43.90
2023-05-09T08:07:32.164Z,44.40
2023-05-09T08:10:03.176Z,44.20
2023-05-09T08:12:48.391Z,44.20
2023-05-09T08:15:16.657Z,44.40
2023-05-09T08:17:44.592Z,44.40
2023-05-09T08:20:14.466Z,44.60
2023-05-09T08:22:42.019Z,44.70
2023-05-09T08:25:31.408Z,44.10
2023-05-09T08:28:01.889Z,43.20
2023-05-09T08:30:32.375Z,42.80
2023-05-09T08:33:08.614Z,42.60
2023-05-09T08:35:47.110Z,43.10
2023-05-09T08:38:18.155Z,43.50
2023-05-09T08:40:45.953Z,43.50
2023-05-09T08:43:26.083Z,43.10
2023-05-09T08:45:58.804Z,42.70
2023-05-09T08:48:34.074Z,43.10
2023-05-09T08:51:45.588Z,42.50
2023-05-09T08:54:23.992Z,40.60
2023-05-09T08:56:51.912Z,40.20
2023-05-09T08:59:20.478Z,39.90
2023-05-09T09:01:48.415Z,39.20
2023-05-09T09:04:16.602Z,39.20
2023-05-09T09:06:53.356Z,39.80
2023-05-09T09:09:25.165Z,40.40
2023-05-09T09:11:54.080Z,41.20
2023-05-09T09:14:38.620Z,41.50
2023-05-09T09:17:14.602Z,41.10
2023-05-09T09:19:49.252Z,40.30
2023-05-09T09:22:34.802Z,39.90
2023-05-09T09:25:08.583Z,39.50
2023-05-09T09:27:45.348Z,39.30
2023-05-09T09:30:19.673Z,39.20
2023-05-09T09:32:52.523Z,39.30
2023-05-09T09:35:25.052Z,39.50
2023-05-09T09:38:00.276Z,39.60
2023-05-09T09:40:28.526Z,39.70
2023-05-09T09:42:56.283Z,39.90
2023-05-09T09:45:28.296Z,39.60
2023-05-09T09:47:56.560Z,39.40
2023-05-09T09:50:31.095Z,39.10
2023-05-09T09:53:09.360Z,38.90
2023-05-09T09:55:45.891Z,38.80
2023-05-09T09:58:18.317Z,38.50
2023-05-09T10:00:47.739Z,38.10
2023-05-09T10:03:18.928Z,37.30
2023-05-09T10:05:49.421Z,36.80
2023-05-09T10:08:28.415Z,36.10
2023-05-09T10:11:04.103Z,35.70
2023-05-09T10:13:40.548Z,35.50
2023-05-09T10:16:43.704Z,35.20
2023-05-09T10:19:14.263Z,34.80
2023-05-09T10:21:49.118Z,34.30
2023-05-09T10:25:06.551Z,33.90
2023-05-09T10:27:39.777Z,33.30
2023-05-09T10:30:29.393Z,33.00
2023-05-09T10:33:17.040Z,32.50
2023-05-09T10:35:48.398Z,32.00
2023-05-09T10:38:17.802Z,31.00
2023-05-09T10:40:51.535Z,30.20
2023-05-09T10:43:19.477Z,29.40
2023-05-09T10:45:53.194Z,28.50
2023-05-09T10:48:25.318Z,28.00
2023-05-09T10:50:55.020Z,27.40
2023-05-09T10:53:24.864Z,27.20
2023-05-09T10:56:04.994Z,26.90
2023-05-09T10:58:34.516Z,26.60
2023-05-09T11:01:05.851Z,26.50
2023-05-09T11:03:53.059Z,26.30
2023-05-09T11:06:44.853Z,26.00
2023-05-09T11:09:35.547Z,25.80
2023-05-09T11:12:13.485Z,25.50
2023-05-09T11:14:46.604Z,25.20
2023-05-09T11:17:29.141Z,25.10
2023-05-09T11:20:13.189Z,24.80
2023-05-09T11:22:55.493Z,24.70
2023-05-09T11:25:28.716Z,24.50
2023-05-09T11:28:02.175Z,24.20
2023-05-09T11:30:44.503Z,24.00
2023-05-09T11:33:27.789Z,23.90
2023-05-09T11:36:21.796Z,23.90
2023-05-09T11:39:14.461Z,23.90
2023-05-09T11:41:49.764Z,23.80
2023-05-09T11:44:20.393Z,23.80
2023-05-09T11:47:06.140Z,23.80
2023-05-09T11:49:43.972Z,23.80
2023-05-09T11:52:14.466Z,23.90
2023-05-09T11:54:43.759Z,23.90
2023-05-09T11:57:32.501Z,24.00
2023-05-09T12:00:10.575Z,24.00
2023-05-09T12:02:43.951Z,24.00
2023-05-09T12:05:16.132Z,23.60
2023-05-09T12:07:44.891Z,23.60
2023-05-09T12:10:15.769Z,23.50
2023-05-09T12:12:48.199Z,23.40
2023-05-09T12:15:17.287Z,23.40
2023-05-09T12:18:00.748Z,23.40
2023-05-09T12:20:42.992Z,23.40
2023-05-09T12:23:12.267Z,23.30
2023-05-09T12:25:57.989Z,23.30
2023-05-09T12:28:26.638Z,23.50
2023-05-09T12:30:55.528Z,23.30
2023-05-09T12:33:23.434Z,23.20
2023-05-09T12:36:12.967Z,23.10
2023-05-09T12:38:40.885Z,23.00
2023-05-09T12:41:22.349Z,23.00
2023-05-09T12:43:58.746Z,23.10
2023-05-09T12:46:26.256Z,23.20
2023-05-09T12:48:54.701Z,23.30
2023-05-09T12:51:23.320Z,23.00
2023-05-09T12:53:51.042Z,23.00
2023-05-09T12:56:25.453Z,22.90
2023-05-09T12:58:58.241Z,23.00
2023-05-09T13:01:30.234Z,23.00
2023-05-09T13:04:06.424Z,23.00
2023-05-09T13:06:36.382Z,23.10
2023-05-09T13:09:08.925Z,23.10
2023-05-09T13:11:39.030Z,23.20
2023-05-09T13:14:17.006Z,23.20
2023-05-09T13:16:47.831Z,23.20
2023-05-09T13:19:15.653Z,23.40
2023-05-09T13:21:43.399Z,23.60
2023-05-09T13:24:14.224Z,23.70
2023-05-09T13:26:44.973Z,23.80
2023-05-09T13:29:17.371Z,23.80
2023-05-09T13:31:45.131Z,23.70
2023-05-09T13:34:12.457Z,23.80
2023-05-09T13:36:39.995Z,23.80
2023-05-09T13:39:07.920Z,23.70
2023-05-09T13:41:42.934Z,23.70
2023-05-09T13:44:11.520Z,23.50
2023-05-09T13:46:41.709Z,23.40
2023-05-09T13:49:09.860Z,23.20
2023-05-09T13:51:45.613Z,23.10
2023-05-09T13:54:15.288Z,22.80
2023-05-09T13:56:45.999Z,22.60
2023-05-09T13:59:13.517Z,22.70
2023-05-09T14:01:41.843Z,22.60
2023-05-09T14:04:09.760Z,22.70
2023-05-09T14:06:37.324Z,22.70
2023-05-09T14:09:12.127Z,22.90
2023-05-09T14:11:40.092Z,23.10
2023-05-09T14:14:12.394Z,23.20
2023-05-09T14:16:48.417Z,23.20
2023-05-09T14:19:17.824Z,23.20
2023-05-09T14:22:02.087Z,23.30
2023-05-09T14:24:38.688Z,23.20
2023-05-09T14:27:09.647Z,23.30
2023-05-09T14:29:46.054Z,23.40
2023-05-09T14:32:15.448Z,23.40
2023-05-09T14:34:46.427Z,23.60
2023-05-09T14:37:15.564Z,23.60
2023-05-09T14:40:06.017Z,23.50
2023-05-09T14:42:34.280Z,23.60
2023-05-09T14:45:02.156Z,23.50
2023-05-09T14:47:42.353Z,23.60
2023-05-09T14:50:16.289Z,23.60
2023-05-09T14:52:44.860Z,23.60
2023-05-09T14:55:13.192Z,23.60
2023-05-09T14:57:40.465Z,23.50
2023-05-09T15:00:19.478Z,23.50
2023-05-09T15:02:54.652Z,23.40
2023-05-09T15:05:27.397Z,23.30
2023-05-09T15:07:55.700Z,23.40
2023-05-09T15:10:23.219Z,23.20
2023-05-09T15:12:51.028Z,23.10
2023-05-09T15:15:21.099Z,23.10
2023-05-09T15:17:49.239Z,23.10
2023-05-09T15:20:18.408Z,23.10
2023-05-09T15:22:47.656Z,23.20
2023-05-09T15:25:17.507Z,23.10
2023-05-09T15:27:45.782Z,23.20
2023-05-09T15:30:13.808Z,23.10
2023-05-09T15:32:41.771Z,23.00
2023-05-09T15:35:09.822Z,23.00
2023-05-09T15:37:37.893Z,22.90
2023-05-09T15:40:06.520Z,22.70
2023-05-09T15:42:35.487Z,22.50
2023-05-09T15:45:05.128Z,22.30
2023-05-09T15:47:33.878Z,22.10
2023-05-09T15:50:01.741Z,22.00
2023-05-09T15:52:31.988Z,21.90
2023-05-09T15:55:00.955Z,21.80
2023-05-09T15:57:30.520Z,21.80
2023-05-09T15:59:58.228Z,21.70
2023-05-09T16:02:25.726Z,21.70
2023-05-09T16:04:53.673Z,21.60
2023-05-09T16:07:21.095Z,21.60
2023-05-09T16:09:52.012Z,21.50
2023-05-09T16:12:19.831Z,21.50
2023-05-09T16:14:47.761Z,21.40
2023-05-09T16:17:15.405Z,21.30
2023-05-09T16:19:43.547Z,21.30
2023-05-09T16:22:11.120Z,21.10
2023-05-09T16:24:41.299Z,21.10
2023-05-09T16:27:14.434Z,21.10
2023-05-09T16:29:42.179Z,20.90
2023-05-09T16:32:10.542Z,20.80
2023-05-09T16:34:38.460Z,20.60
2023-05-09T16:37:05.680Z,20.50
2023-05-09T16:39:33.204Z,20.30
2023-05-09T16:42:00.830Z,20.30
2023-05-09T16:44:28.522Z,20.20
2023-05-09T16:46:56.060Z,20.10
2023-05-09T16:49:23.902Z,20.10
2023-05-09T16:51:51.408Z,20.00
2023-05-09T16:54:19.012Z,19.90
2023-05-09T16:56:46.644Z,19.90
2023-05-09T16:59:17.420Z,19.90
2023-05-09T17:01:45.073Z,19.90
2023-05-09T17:04:14.145Z,19.70
2023-05-09T17:06:41.424Z,19.70
2023-05-09T17:09:09.112Z,19.60
2023-05-09T17:11:36.725Z,19.60
2023-05-09T17:14:07.801Z,19.50
2023-05-09T17:16:37.997Z,19.50
2023-05-09T17:19:08.112Z,19.40
2023-05-09T17:21:40.995Z,19.30
2023-05-09T17:24:10.272Z,19.30
2023-05-09T17:26:38.983Z,19.20
2023-05-09T17:29:06.443Z,19.20
2023-05-09T17:31:37.260Z,19.10
2023-05-09T17:34:05.714Z,19.00
2023-05-09T17:36:33.906Z,19.00
2023-05-09T17:39:01.319Z,18.90
2023-05-09T17:41:28.631Z,18.80
2023-05-09T17:43:58.690Z,18.70
2023-05-09T17:46:26.700Z,18.70
2023-05-09T17:48:57.070Z,18.60
2023-05-09T17:51:24.607Z,18.50
2023-05-09T17:53:53.006Z,18.40
2023-05-09T17:56:21.397Z,18.40
2023-05-09T17:58:53.210Z,18.30
2023-05-09T18:01:20.502Z,18.20
2023-05-09T18:03:52.016Z,18.10
2023-05-09T18:06:19.464Z,17.90
2023-05-09T18:08:47.276Z,17.80
2023-05-09T18:11:15.476Z,17.70
2023-05-09T18:13:44.727Z,17.70
2023-05-09T18:16:12.001Z,17.50
2023-05-09T18:18:39.703Z,17.40
2023-05-09T18:21:08.156Z,17.40
2023-05-09T18:23:35.897Z,17.40
2023-05-09T18:26:10.141Z,17.20
2023-05-09T18:28:41.104Z,17.20
2023-05-09T18:31:13.217Z,17.10
2023-05-09T18:33:44.236Z,17.00
2023-05-09T18:36:11.652Z,16.90
2023-05-09T18:38:39.989Z,16.80
2023-05-09T18:41:11.479Z,16.80
2023-05-09T18:43:45.892Z,16.70
2023-05-09T18:46:22.861Z,16.70
2023-05-09T18:48:51.704Z,16.60
2023-05-09T18:51:20.132Z,16.50
2023-05-09T18:53:48.790Z,16.40
2023-05-09T18:56:18.334Z,16.40
2023-05-09T18:58:45.704Z,16.40
2023-05-09T19:01:12.864Z,16.20
2023-05-09T19:03:45.562Z,16.20
2023-05-09T19:06:14.537Z,16.00
2023-05-09T19:08:43.349Z,16.00
2023-05-09T19:11:11.758Z,16.00
2023-05-09T19:13:40.888Z,15.80
2023-05-09T19:16:08.956Z,15.80
2023-05-09T19:18:36.503Z,15.80
2023-05-09T19:21:04.422Z,15.70
2023-05-09T19:23:31.965Z,15.70
2023-05-09T19:25:59.182Z,15.60
2023-05-09T19:31:20.730Z,15.40
2023-05-09T19:33:48.612Z,15.40
2023-05-09T19:36:16.000Z,15.30
2023-05-09T19:38:43.716Z,15.20
2023-05-09T19:41:11.169Z,15.20
2023-05-09T19:43:38.542Z,15.20
2023-05-09T19:46:08.252Z,15.10
2023-05-09T19:48:38.794Z,15.00
2023-05-09T19:51:08.462Z,15.00
2023-05-09T19:53:35.965Z,14.90
2023-05-09T19:56:03.652Z,14.90
2023-05-09T19:58:33.516Z,14.80
2023-05-09T20:01:02.151Z,14.80
2023-05-09T20:03:29.599Z,14.70
2023-05-09T20:05:56.835Z,14.70
2023-05-09T20:08:25.692Z,14.60
2023-05-09T20:10:54.005Z,14.60
2023-05-09T20:13:21.613Z,14.50
2023-05-09T20:15:50.386Z,14.40
2023-05-09T20:18:17.971Z,14.40
2023-05-09T20:20:45.389Z,14.40
2023-05-09T20:23:13.341Z,14.30
2023-05-09T20:25:40.808Z,14.30
2023-05-09T20:28:08.563Z,14.20
2023-05-09T20:30:35.692Z,14.20
2023-05-09T20:33:03.692Z,14.10
2023-05-09T20:35:31.210Z,14.10
2023-05-09T20:37:58.340Z,14.10
2023-05-09T20:40:25.989Z,14.10
2023-05-09T20:42:55.364Z,14.00
2023-05-09T20:45:23.125Z,14.00
2023-05-09T20:47:54.005Z,13.90
2023-05-09T20:50:21.308Z,14.00
2023-05-09T20:52:49.014Z,13.80
2023-05-09T20:55:16.382Z,13.80
2023-05-09T20:58:40.267Z,13.80
2023-05-09T21:01:07.732Z,13.80
2023-05-09T21:03:35.181Z,13.70
2023-05-09T21:06:02.693Z,13.60
2023-05-09T21:08:29.992Z,13.60
2023-05-09T21:10:57.109Z,13.50
2023-05-09T21:13:24.644Z,13.60
2023-05-09T21:15:52.190Z,13.50
2023-05-09T21:18:20.253Z,13.50
2023-05-09T21:20:50.185Z,13.40
2023-05-09T21:23:18.801Z,13.40
2023-05-09T21:25:48.818Z,13.30
2023-05-09T21:28:20.646Z,13.30
2023-05-09T21:30:52.523Z,13.30
2023-05-09T21:33:22.910Z,13.20
2023-05-09T21:35:50.264Z,13.20
2023-05-09T21:38:17.688Z,13.10
2023-05-09T21:40:44.914Z,13.10
2023-05-09T21:43:12.164Z,13.10
2023-05-09T21:45:39.380Z,13.10
2023-05-09T21:48:07.148Z,13.00
2023-05-09T21:50:34.570Z,13.00
2023-05-09T21:53:01.712Z,12.90
2023-05-09T21:55:29.214Z,12.90
2023-05-09T21:57:56.704Z,12.80
2023-05-09T22:00:24.088Z,12.90
2023-05-09T22:02:52.087Z,12.90
2023-05-09T22:05:19.304Z,12.80
2023-05-09T22:07:46.409Z,12.80
2023-05-09T22:10:14.157Z,12.70
2023-05-09T22:12:41.390Z,12.70
2023-05-09T22:15:09.286Z,12.70
2023-05-09T22:17:36.855Z,12.60
2023-05-09T22:20:04.571Z,12.60
2023-05-09T22:23:03.657Z,12.60
2023-05-09T22:25:33.689Z,12.50
2023-05-09T22:28:06.003Z,12.50
2023-05-09T22:30:36.300Z,12.50
2023-05-09T22:33:04.262Z,12.50
2023-05-09T22:35:31.883Z,12.40
2023-05-09T22:37:58.960Z,12.50
2023-05-09T22:40:27.041Z,12.30
2023-05-09T22:42:55.009Z,12.30
2023-05-09T22:45:25.250Z,12.30
2023-05-09T22:47:52.634Z,12.20
2023-05-09T22:50:20.406Z,12.20
2023-05-09T22:52:47.888Z,12.20
2023-05-09T22:55:15.650Z,12.10
2023-05-09T22:57:43.159Z,12.10
2023-05-09T23:00:15.026Z,12.10
2023-05-09T23:02:42.989Z,12.00
2023-05-09T23:05:13.810Z,12.00
2023-05-09T23:07:41.047Z,11.90
2023-05-09T23:10:08.744Z,11.80
2023-05-09T23:12:36.191Z,11.90
2023-05-09T23:15:03.735Z,11.80
2023-05-09T23:17:34.098Z,11.70
2023-05-09T23:20:03.445Z,11.70
2023-05-09T23:22:31.785Z,11.70
2023-05-09T23:25:01.251Z,11.50
2023-05-09T23:27:31.308Z,11.60
2023-05-09T23:29:58.879Z,11.50
2023-05-09T23:32:26.317Z,11.50
2023-05-09T23:34:53.837Z,11.60
2023-05-09T23:37:21.473Z,11.40
2023-05-09T23:39:48.992Z,11.30
2023-05-09T23:42:16.085Z,11.40
2023-05-09T23:44:43.334Z,11.20
2023-05-09T23:47:10.661Z,11.20
2023-05-09T23:49:37.989Z,11.20
2023-05-09T23:52:05.558Z,11.10
2023-05-09T23:54:32.754Z,11.10
2023-05-09T23:57:00.236Z,11.00
2023-05-09T23:59:27.878Z,11.10
